createdAt,value
2022-08-08T00:00:53.448Z,12.47
2022-08-08T00:01:06.578Z,12.46
2022-08-08T00:02:04.233Z,12.40
2022-08-08T00:02:51.058Z,12.51
2022-08-08T00:03:50.105Z,12.42
2022-08-08T00:04:54.143Z,12.33
2022-08-08T00:06:02.666Z,12.30
2022-08-08T00:06:51.027Z,12.38
2022-08-08T00:07:50.013Z,12.36
2022-08-08T00:08:50.001Z,12.38
2022-08-08T00:09:52.247Z,12.36
2022-08-08T00:10:49.997Z,12.28
2022-08-08T00:12:07.088Z,12.30
2022-08-08T00:12:56.844Z,12.42
2022-08-08T00:14:17.351Z,12.35
2022-08-08T00:15:00.362Z,12.25
2022-08-08T00:15:57.408Z,12.24
2022-08-08T00:16:50.973Z,12.18
2022-08-08T00:18:03.908Z,12.20
2022-08-08T00:18:50.928Z,12.25
2022-08-08T00:19:51.480Z,12.20
2022-08-08T00:20:50.381Z,12.15
2022-08-08T00:21:49.936Z,12.15
2022-08-08T00:22:49.902Z,12.13
2022-08-08T00:23:51.486Z,12.17
2022-08-08T00:24:49.875Z,12.13
2022-08-08T00:25:51.205Z,12.07
2022-08-08T00:26:49.892Z,12.09
2022-08-08T00:27:49.850Z,12.03
2022-08-08T00:28:49.849Z,12.00
2022-08-08T00:29:49.833Z,12.06
2022-08-08T00:31:00.559Z,11.95
2022-08-08T00:32:20.712Z,12.02
2022-08-08T00:32:50.812Z,12.10
2022-08-08T00:34:18.087Z,11.99
2022-08-08T00:34:50.793Z,12.05
2022-08-08T00:35:49.791Z,11.96
2022-08-08T00:36:51.655Z,11.80
2022-08-08T00:38:02.373Z,11.90
2022-08-08T00:38:54.655Z,11.96
2022-08-08T00:41:09.729Z,11.90
2022-08-08T00:41:11.792Z,11.74
2022-08-08T00:42:07.758Z,11.87
2022-08-08T00:42:50.772Z,11.91
2022-08-08T00:43:59.041Z,11.99
2022-08-08T00:44:51.020Z,11.86
2022-08-08T00:45:49.728Z,11.91
2022-08-08T00:46:57.271Z,11.96
2022-08-08T00:48:05.184Z,11.86
2022-08-08T00:49:00.951Z,11.91
2022-08-08T00:49:58.771Z,11.90
2022-08-08T00:50:52.318Z,11.76
2022-08-08T00:51:51.727Z,11.81
2022-08-08T00:52:51.338Z,11.79
2022-08-08T00:54:04.490Z,11.74
2022-08-08T00:54:50.642Z,11.95
2022-08-08T00:55:52.986Z,11.87
2022-08-08T00:56:49.656Z,11.87
2022-08-08T00:57:58.012Z,11.87
2022-08-08T00:58:54.834Z,11.84
2022-08-08T00:59:49.598Z,11.86
2022-08-08T01:00:50.642Z,11.83
2022-08-08T01:01:49.705Z,11.81
2022-08-08T01:04:00.774Z,11.74
2022-08-08T01:04:02.155Z,11.76
2022-08-08T01:04:50.552Z,11.66
2022-08-08T01:05:59.380Z,11.71
2022-08-08T01:06:50.572Z,11.62
2022-08-08T01:07:55.507Z,11.76
2022-08-08T01:08:52.212Z,11.71
2022-08-08T01:09:49.516Z,11.69
2022-08-08T01:10:50.754Z,11.62
2022-08-08T01:11:52.107Z,11.68
2022-08-08T01:12:49.494Z,11.65
2022-08-08T01:13:52.919Z,11.62
2022-08-08T01:14:53.304Z,11.51
2022-08-08T01:15:54.127Z,11.62
2022-08-08T01:16:50.494Z,11.56
2022-08-08T01:17:53.815Z,11.53
2022-08-08T01:18:53.655Z,11.51
2022-08-08T01:20:01.488Z,11.46
2022-08-08T01:20:50.433Z,11.50
2022-08-08T01:22:09.860Z,11.40
2022-08-08T01:22:50.576Z,11.48
2022-08-08T01:24:06.176Z,11.47
2022-08-08T01:24:50.880Z,11.51
2022-08-08T01:25:54.148Z,11.47
2022-08-08T01:26:50.408Z,11.40
2022-08-08T01:27:49.373Z,11.47
2022-08-08T01:28:51.418Z,11.41
2022-08-08T01:29:59.878Z,11.41
2022-08-08T01:30:53.738Z,11.38
2022-08-08T01:32:13.701Z,11.32
2022-08-08T01:32:52.071Z,11.30
2022-08-08T01:34:00.225Z,11.29
2022-08-08T01:34:50.318Z,11.29
2022-08-08T01:35:49.308Z,11.25
2022-08-08T01:36:50.752Z,11.32
2022-08-08T01:37:56.940Z,11.26
2022-08-08T01:38:50.287Z,11.25
2022-08-08T01:39:49.353Z,11.33
2022-08-08T01:40:49.275Z,11.37
2022-08-08T01:41:49.281Z,11.40
2022-08-08T01:42:49.276Z,11.41
2022-08-08T01:43:50.702Z,11.40
2022-08-08T01:44:50.330Z,11.37
2022-08-08T01:45:54.497Z,11.38
2022-08-08T01:46:52.273Z,11.29
2022-08-08T01:48:16.946Z,11.40
2022-08-08T01:48:51.266Z,11.33
2022-08-08T01:49:51.896Z,11.32
2022-08-08T01:50:50.706Z,11.30
2022-08-08T01:52:43.473Z,11.29
2022-08-08T01:54:11.116Z,11.26
2022-08-08T01:55:16.922Z,11.23
2022-08-08T01:55:25.448Z,11.23
2022-08-08T01:56:28.235Z,11.20
2022-08-08T01:56:50.150Z,11.14
2022-08-08T01:58:10.834Z,11.14
2022-08-08T01:58:50.109Z,11.11
2022-08-08T02:00:02.580Z,11.23
2022-08-08T02:00:50.151Z,11.23
2022-08-08T02:02:00.034Z,11.23
2022-08-08T02:02:50.077Z,11.22
2022-08-08T02:03:55.571Z,11.19
2022-08-08T02:04:50.938Z,11.20
2022-08-08T02:05:56.361Z,11.11
2022-08-08T02:06:50.081Z,11.15
2022-08-08T02:07:49.143Z,11.17
2022-08-08T02:08:49.026Z,11.14
2022-08-08T02:10:03.658Z,11.12
2022-08-08T02:11:04.647Z,11.08
2022-08-08T02:11:59.030Z,11.15
2022-08-08T02:12:50.047Z,11.17
2022-08-08T02:13:54.033Z,11.22
2022-08-08T02:14:58.652Z,11.08
2022-08-08T02:15:49.968Z,11.11
2022-08-08T02:16:48.961Z,11.14
2022-08-08T02:17:50.422Z,11.10
2022-08-08T02:18:48.949Z,10.96
2022-08-08T02:20:07.456Z,11.05
2022-08-08T02:21:01.900Z,10.93
2022-08-08T02:21:49.925Z,10.97
2022-08-08T02:22:52.783Z,10.97
2022-08-08T02:23:49.906Z,10.95
2022-08-08T02:24:48.898Z,10.87
2022-08-08T02:25:49.030Z,10.86
2022-08-08T02:26:48.886Z,10.85
2022-08-08T02:27:48.909Z,10.74
2022-08-08T02:28:51.610Z,10.83
2022-08-08T02:29:52.712Z,10.77
2022-08-08T02:30:49.694Z,10.71
2022-08-08T02:31:58.830Z,10.77
2022-08-08T02:32:49.850Z,10.70
2022-08-08T02:34:07.196Z,10.78
2022-08-08T02:35:07.908Z,10.74
2022-08-08T02:36:05.022Z,10.75
2022-08-08T02:36:49.809Z,10.74
2022-08-08T02:37:52.929Z,10.67
2022-08-08T02:38:50.704Z,10.59
2022-08-08T02:39:59.696Z,10.70
2022-08-08T02:40:50.140Z,10.70
2022-08-08T02:42:03.782Z,10.75
2022-08-08T02:43:00.674Z,10.65
2022-08-08T02:44:36.997Z,10.65
2022-08-08T02:44:57.109Z,10.68
2022-08-08T02:45:51.726Z,10.67
2022-08-08T02:46:50.723Z,10.62
2022-08-08T02:47:52.010Z,10.62
2022-08-08T02:48:49.705Z,10.65
2022-08-08T02:49:51.343Z,10.57
2022-08-08T02:50:55.589Z,10.60
2022-08-08T02:51:56.840Z,10.52
2022-08-08T02:52:50.747Z,10.57
2022-08-08T02:53:50.767Z,10.60
2022-08-08T02:54:50.128Z,10.65
2022-08-08T02:55:48.648Z,10.68
2022-08-08T02:56:50.895Z,10.64
2022-08-08T02:57:51.294Z,10.65
2022-08-08T02:58:48.617Z,10.57
2022-08-08T02:59:58.562Z,10.57
2022-08-08T03:00:50.890Z,10.67
2022-08-08T03:01:50.605Z,10.62
2022-08-08T03:02:50.460Z,10.62
2022-08-08T03:05:03.122Z,10.60
2022-08-08T03:05:04.275Z,10.56
2022-08-08T03:05:51.502Z,10.65
2022-08-08T03:06:49.560Z,10.64
2022-08-08T03:07:57.750Z,10.52
2022-08-08T03:08:52.013Z,10.45
2022-08-08T03:09:48.534Z,10.56
2022-08-08T03:10:53.915Z,10.54
2022-08-08T03:12:02.997Z,10.43
2022-08-08T03:13:01.878Z,10.41
2022-08-08T03:15:56.371Z,10.38
2022-08-08T03:15:59.222Z,10.48
2022-08-08T03:16:04.035Z,10.35
2022-08-08T03:16:49.513Z,10.60
2022-08-08T03:17:59.733Z,10.53
2022-08-08T03:18:49.459Z,10.49
2022-08-08T03:19:51.209Z,10.57
2022-08-08T03:20:51.911Z,10.41
2022-08-08T03:21:58.398Z,10.43
2022-08-08T03:22:56.275Z,10.41
2022-08-08T03:23:57.268Z,10.40
2022-08-08T03:24:49.429Z,10.35
2022-08-08T03:25:50.232Z,10.30
2022-08-08T03:26:48.401Z,10.38
2022-08-08T03:27:48.423Z,10.38
2022-08-08T03:28:51.260Z,10.23
2022-08-08T03:29:54.755Z,10.34
2022-08-08T03:31:07.914Z,10.23
2022-08-08T03:32:06.393Z,10.31
2022-08-08T03:32:57.766Z,10.28
2022-08-08T03:33:55.467Z,10.28
2022-08-08T03:34:49.334Z,10.19
2022-08-08T03:35:49.325Z,10.19
2022-08-08T03:36:48.321Z,10.23
2022-08-08T03:38:54.243Z,10.23
2022-08-08T03:38:55.673Z,10.22
2022-08-08T03:39:51.914Z,10.18
2022-08-08T03:40:51.854Z,10.19
2022-08-08T03:42:27.725Z,10.19
2022-08-08T03:42:49.294Z,10.16
2022-08-08T03:43:48.247Z,10.06
2022-08-08T03:44:52.118Z,10.13
2022-08-08T03:46:06.059Z,10.18
2022-08-08T03:46:49.225Z,10.04
2022-08-08T03:47:52.382Z,10.08
2022-08-08T03:49:27.958Z,10.00
2022-08-08T03:49:57.184Z,10.00
2022-08-08T03:50:49.199Z,10.02
2022-08-08T03:51:51.538Z,9.95
2022-08-08T03:52:48.656Z,9.97
2022-08-08T03:53:48.209Z,9.91
2022-08-08T03:55:01.499Z,10.00
2022-08-08T03:55:57.980Z,9.95
2022-08-08T03:56:49.149Z,10.02
2022-08-08T03:58:33.829Z,10.01
2022-08-08T03:58:49.166Z,10.02
2022-08-08T03:59:59.525Z,10.01
2022-08-08T04:01:02.770Z,9.98
2022-08-08T04:02:31.792Z,10.08
2022-08-08T04:02:52.128Z,10.08
2022-08-08T04:03:57.522Z,10.00
2022-08-08T04:04:49.128Z,10.04
2022-08-08T04:05:50.139Z,10.08
2022-08-08T04:06:48.067Z,10.10
2022-08-08T04:07:48.089Z,10.09
2022-08-08T04:08:48.081Z,10.12
2022-08-08T04:10:05.694Z,10.06
2022-08-08T04:10:48.048Z,10.09
2022-08-08T04:11:58.793Z,10.10
2022-08-08T04:12:49.801Z,10.18
2022-08-08T04:14:03.043Z,10.27
2022-08-08T04:14:50.559Z,10.31
2022-08-08T04:15:54.930Z,10.33
2022-08-08T04:16:49.242Z,10.30
2022-08-08T04:17:58.837Z,10.33
2022-08-08T04:18:49.050Z,10.40
2022-08-08T04:19:47.962Z,10.49
2022-08-08T04:20:47.957Z,10.75
2022-08-08T04:21:47.961Z,10.87
2022-08-08T04:22:51.469Z,10.95
2022-08-08T04:24:12.227Z,11.10
2022-08-08T04:24:50.235Z,11.08
2022-08-08T04:25:47.921Z,11.17
2022-08-08T04:26:58.153Z,11.22
2022-08-08T04:28:34.441Z,11.40
2022-08-08T04:28:48.920Z,11.44
2022-08-08T04:29:55.270Z,11.59
2022-08-08T04:30:48.873Z,11.74
2022-08-08T04:31:58.552Z,12.09
2022-08-08T04:32:50.323Z,12.25
2022-08-08T04:33:47.906Z,12.39
2022-08-08T04:34:55.628Z,12.63
2022-08-08T04:35:51.103Z,12.73
2022-08-08T04:36:47.828Z,12.83
2022-08-08T04:37:49.190Z,12.97
2022-08-08T04:38:57.269Z,13.01
2022-08-08T04:40:07.161Z,13.26
2022-08-08T04:40:53.685Z,13.31
2022-08-08T04:41:48.786Z,13.53
2022-08-08T04:42:57.142Z,13.60
2022-08-08T04:43:54.245Z,13.65
2022-08-08T04:44:49.757Z,13.80
2022-08-08T04:45:47.776Z,14.05
2022-08-08T04:46:47.740Z,14.26
2022-08-08T04:47:47.744Z,14.55
2022-08-08T04:48:47.755Z,14.73
2022-08-08T04:50:01.084Z,14.70
2022-08-08T04:50:48.712Z,14.89
2022-08-08T04:51:55.342Z,15.24
2022-08-08T04:52:48.717Z,15.25
2022-08-08T04:54:27.250Z,15.19
2022-08-08T04:54:50.659Z,15.12
2022-08-08T04:55:56.149Z,15.22
2022-08-08T04:56:48.660Z,15.14
2022-08-08T04:57:47.671Z,14.99
2022-08-08T04:58:48.494Z,15.42
2022-08-08T04:59:47.639Z,15.76
2022-08-08T05:00:48.542Z,15.83
2022-08-08T05:01:48.350Z,15.50
2022-08-08T05:02:47.675Z,15.30
2022-08-08T05:04:08.957Z,15.43
2022-08-08T05:04:48.598Z,15.61
2022-08-08T05:05:47.586Z,15.91
2022-08-08T05:06:50.456Z,15.69
2022-08-08T05:07:48.559Z,15.77
2022-08-08T05:08:51.504Z,16.17
2022-08-08T05:09:47.573Z,16.09
2022-08-08T05:10:47.544Z,16.02
2022-08-08T05:11:56.544Z,16.05
2022-08-08T05:12:59.969Z,16.10
2022-08-08T05:13:57.550Z,16.02
2022-08-08T05:14:48.575Z,16.21
2022-08-08T05:16:48.415Z,16.35
2022-08-08T05:17:00.641Z,16.57
2022-08-08T05:17:53.585Z,16.82
2022-08-08T05:18:48.475Z,16.59
2022-08-08T05:20:10.730Z,16.69
2022-08-08T05:20:52.235Z,16.50
2022-08-08T05:21:59.895Z,16.53
2022-08-08T05:22:49.020Z,16.34
2022-08-08T05:23:49.521Z,16.84
2022-08-08T05:24:49.356Z,16.82
2022-08-08T05:25:47.463Z,17.22
2022-08-08T05:26:48.688Z,17.35
2022-08-08T05:27:47.401Z,17.42
2022-08-08T05:28:56.107Z,17.73
2022-08-08T05:29:50.315Z,17.82
2022-08-08T05:30:47.620Z,17.51
2022-08-08T05:32:03.022Z,17.24
2022-08-08T05:32:48.376Z,16.89
2022-08-08T05:33:48.409Z,16.86
2022-08-08T05:34:47.378Z,17.06
2022-08-08T05:35:47.339Z,17.29
2022-08-08T05:36:48.334Z,17.88
2022-08-08T05:37:53.360Z,18.00
2022-08-08T05:38:48.316Z,18.16
2022-08-08T05:39:48.117Z,17.89
2022-08-08T05:40:48.916Z,17.88
2022-08-08T05:41:55.682Z,18.09
2022-08-08T05:42:49.102Z,18.59
2022-08-08T05:44:03.190Z,18.90
2022-08-08T05:44:49.158Z,19.07
2022-08-08T05:45:53.026Z,18.88
2022-08-08T05:46:48.247Z,18.78
2022-08-08T05:48:00.770Z,18.77
2022-08-08T05:48:49.882Z,18.80
2022-08-08T05:49:54.495Z,18.66
2022-08-08T05:50:48.218Z,18.60
2022-08-08T05:51:49.603Z,18.78
2022-08-08T05:52:47.201Z,18.85
2022-08-08T05:54:24.886Z,18.80
2022-08-08T05:54:50.959Z,18.75
2022-08-08T05:56:11.698Z,19.15
2022-08-08T05:56:48.337Z,19.30
2022-08-08T05:58:05.199Z,19.26
2022-08-08T05:58:57.721Z,19.36
2022-08-08T06:00:00.504Z,19.46
2022-08-08T06:00:56.901Z,19.71
2022-08-08T06:01:56.017Z,19.60
2022-08-08T06:02:48.903Z,19.82
2022-08-08T06:03:53.400Z,20.09
2022-08-08T06:04:54.731Z,20.39
2022-08-08T06:05:48.089Z,20.34
2022-08-08T06:06:50.258Z,20.84
2022-08-08T06:07:47.080Z,21.03
2022-08-08T06:08:53.440Z,20.63
2022-08-08T06:10:01.128Z,20.80
2022-08-08T06:10:49.050Z,20.78
2022-08-08T06:11:47.047Z,20.89
2022-08-08T06:12:47.034Z,21.10
2022-08-08T06:13:49.241Z,20.99
2022-08-08T06:14:47.702Z,20.97
2022-08-08T06:15:50.502Z,21.00
2022-08-08T06:16:47.998Z,21.57
2022-08-08T06:17:51.216Z,22.13
2022-08-08T06:18:48.062Z,22.30
2022-08-08T06:19:47.033Z,22.11
2022-08-08T06:20:46.971Z,22.38
2022-08-08T06:21:51.123Z,21.99
2022-08-08T06:22:49.379Z,21.74
2022-08-08T06:23:53.281Z,21.54
2022-08-08T06:24:51.138Z,22.01
2022-08-08T06:26:38.438Z,22.26
2022-08-08T06:26:50.626Z,22.15
2022-08-08T06:27:48.381Z,22.10
2022-08-08T06:28:47.911Z,21.92
2022-08-08T06:29:56.718Z,22.03
2022-08-08T06:30:47.896Z,22.35
2022-08-08T06:31:52.570Z,22.38
2022-08-08T06:32:50.194Z,22.58
2022-08-08T06:34:26.013Z,22.91
2022-08-08T06:34:56.524Z,22.93
2022-08-08T06:36:04.324Z,22.77
2022-08-08T06:36:53.655Z,22.98
2022-08-08T06:37:50.986Z,22.91
2022-08-08T06:38:54.337Z,23.09
2022-08-08T06:39:55.751Z,23.51
2022-08-08T06:40:48.576Z,23.65
2022-08-08T06:41:49.094Z,23.17
2022-08-08T06:42:46.796Z,23.24
2022-08-08T06:43:47.636Z,23.43
2022-08-08T06:44:47.885Z,23.77
2022-08-08T06:45:48.206Z,24.29
2022-08-08T06:46:46.965Z,24.65
2022-08-08T06:47:52.630Z,24.70
2022-08-08T06:49:07.189Z,24.88
2022-08-08T06:49:55.912Z,24.67
2022-08-08T06:50:48.060Z,25.08
2022-08-08T06:51:52.387Z,25.08
2022-08-08T06:52:50.416Z,25.00
2022-08-08T06:53:51.067Z,24.73
2022-08-08T06:54:49.033Z,24.63
2022-08-08T06:55:47.097Z,24.78
2022-08-08T06:56:51.444Z,24.47
2022-08-08T06:57:56.064Z,23.99
2022-08-08T06:58:47.665Z,23.70
2022-08-08T07:00:01.710Z,23.43
2022-08-08T07:00:47.959Z,23.83
2022-08-08T07:02:17.493Z,24.08
2022-08-08T07:02:47.814Z,24.25
2022-08-08T07:03:52.020Z,24.47
2022-08-08T07:04:51.748Z,25.00
2022-08-08T07:06:01.808Z,25.23
2022-08-08T07:06:47.603Z,25.06
2022-08-08T07:07:46.599Z,24.96
2022-08-08T07:08:46.612Z,24.48
2022-08-08T07:09:56.381Z,24.20
2022-08-08T07:10:47.984Z,24.21
2022-08-08T07:11:51.437Z,24.05
2022-08-08T07:12:48.254Z,24.63
2022-08-08T07:14:00.008Z,24.73
2022-08-08T07:14:51.486Z,24.51
2022-08-08T07:16:04.891Z,24.55
2022-08-08T07:16:50.830Z,25.23
2022-08-08T07:18:00.784Z,25.75
2022-08-08T07:18:49.185Z,25.13
2022-08-08T07:19:46.751Z,24.70
2022-08-08T07:20:50.780Z,24.65
2022-08-08T07:21:48.236Z,25.32
2022-08-08T07:22:46.818Z,25.62
2022-08-08T07:24:01.161Z,25.82
2022-08-08T07:24:47.489Z,25.45
2022-08-08T07:25:54.522Z,25.11
2022-08-08T07:26:50.760Z,25.25
2022-08-08T07:28:01.893Z,25.73
2022-08-08T07:28:47.442Z,25.40
2022-08-08T07:30:02.019Z,25.28
2022-08-08T07:30:47.417Z,25.06
2022-08-08T07:31:48.349Z,25.20
2022-08-08T07:32:46.402Z,25.82
2022-08-08T07:33:53.763Z,25.75
2022-08-08T07:34:59.428Z,25.48
2022-08-08T07:35:48.528Z,25.48
2022-08-08T07:36:50.688Z,25.32
2022-08-08T07:38:04.256Z,25.11
2022-08-08T07:38:50.218Z,25.19
2022-08-08T07:39:57.777Z,25.59
2022-08-08T07:40:47.865Z,25.43
2022-08-08T07:42:03.527Z,25.32
2022-08-08T07:42:48.317Z,25.93
2022-08-08T07:43:51.377Z,26.16
2022-08-08T07:44:47.302Z,26.19
2022-08-08T07:45:51.140Z,26.59
2022-08-08T07:46:47.289Z,26.52
2022-08-08T07:47:48.951Z,26.57
2022-08-08T07:48:47.459Z,26.43
2022-08-08T07:49:46.353Z,25.93
2022-08-08T07:50:46.287Z,25.47
2022-08-08T07:51:53.522Z,26.19
2022-08-08T07:52:47.245Z,27.00
2022-08-08T07:54:00.870Z,27.18
2022-08-08T07:54:47.250Z,27.30
2022-08-08T07:55:46.673Z,28.02
2022-08-08T07:56:46.219Z,27.97
2022-08-08T07:57:48.591Z,28.01
2022-08-08T07:58:46.194Z,27.82
2022-08-08T07:59:46.193Z,27.54
2022-08-08T08:00:46.249Z,27.87
2022-08-08T08:02:35.147Z,27.23
2022-08-08T08:02:47.505Z,27.41
2022-08-08T08:03:46.156Z,27.49
2022-08-08T08:04:46.699Z,27.70
2022-08-08T08:05:51.002Z,27.79
2022-08-08T08:06:47.137Z,27.71
2022-08-08T08:07:46.456Z,28.19
2022-08-08T08:08:52.137Z,28.29
2022-08-08T08:09:47.143Z,27.95
2022-08-08T08:10:46.135Z,28.24
2022-08-08T08:11:51.519Z,28.36
2022-08-08T08:12:47.085Z,27.98
2022-08-08T08:14:07.685Z,27.82
2022-08-08T08:14:47.069Z,28.11
2022-08-08T08:15:46.097Z,28.56
2022-08-08T08:16:50.401Z,28.23
2022-08-08T08:17:48.597Z,28.04
2022-08-08T08:18:52.160Z,27.75
2022-08-08T08:19:48.175Z,27.89
2022-08-08T08:20:46.063Z,28.20
2022-08-08T08:21:57.845Z,28.81
2022-08-08T08:22:47.451Z,28.82
2022-08-08T08:23:51.118Z,29.39
2022-08-08T08:24:46.880Z,29.87
2022-08-08T08:25:55.191Z,29.55
2022-08-08T08:26:52.795Z,29.19
2022-08-08T08:27:47.292Z,28.56
2022-08-08T08:28:46.509Z,28.17
2022-08-08T08:29:50.942Z,28.32
2022-08-08T08:30:46.984Z,28.69
2022-08-08T08:31:45.957Z,27.92
2022-08-08T08:32:51.191Z,27.82
2022-08-08T08:33:45.932Z,28.46
2022-08-08T08:34:48.596Z,28.29
2022-08-08T08:36:18.728Z,28.34
2022-08-08T08:36:51.286Z,28.57
2022-08-08T08:38:13.132Z,29.41
2022-08-08T08:38:49.522Z,29.81
2022-08-08T08:40:01.602Z,29.72
2022-08-08T08:40:48.754Z,29.90
2022-08-08T08:41:45.916Z,30.45
2022-08-08T08:42:45.870Z,30.81
2022-08-08T08:43:45.867Z,30.91
2022-08-08T08:44:45.860Z,31.06
2022-08-08T08:45:45.879Z,30.27
2022-08-08T08:46:51.020Z,30.02
2022-08-08T08:47:46.826Z,30.39
2022-08-08T08:48:49.533Z,30.60
2022-08-08T08:49:46.053Z,30.21
2022-08-08T08:50:46.257Z,29.90
2022-08-08T08:51:51.747Z,29.41
2022-08-08T08:52:59.499Z,29.39
2022-08-08T08:53:57.095Z,29.87
2022-08-08T08:54:46.774Z,30.47
2022-08-08T08:55:45.771Z,30.88
2022-08-08T08:56:46.282Z,31.38
2022-08-08T08:57:46.205Z,31.04
2022-08-08T08:58:46.798Z,30.18
2022-08-08T08:59:59.613Z,30.74
2022-08-08T09:01:08.999Z,31.19
2022-08-08T09:01:48.055Z,31.37
2022-08-08T09:02:45.806Z,31.00
2022-08-08T09:03:47.818Z,30.60
2022-08-08T09:04:50.079Z,30.48
2022-08-08T09:05:53.806Z,30.37
2022-08-08T09:06:50.308Z,30.66
2022-08-08T09:08:12.858Z,30.91
2022-08-08T09:08:49.844Z,30.27
2022-08-08T09:09:48.105Z,30.69
2022-08-08T09:10:47.968Z,31.18
2022-08-08T09:12:01.709Z,31.34
2022-08-08T09:12:47.221Z,32.03
2022-08-08T09:13:45.639Z,32.33
2022-08-08T09:14:46.984Z,33.06
2022-08-08T09:15:46.926Z,32.62
2022-08-08T09:16:45.676Z,32.25
2022-08-08T09:17:55.757Z,31.51
2022-08-08T09:18:46.983Z,31.70
2022-08-08T09:21:56.135Z,32.77
2022-08-08T09:21:58.545Z,32.13
2022-08-08T09:22:05.441Z,32.55
2022-08-08T09:22:46.877Z,31.94
2022-08-08T09:23:45.567Z,31.06
2022-08-08T09:24:45.568Z,30.62
2022-08-08T09:25:54.788Z,30.05
2022-08-08T09:26:47.332Z,29.72
2022-08-08T09:27:58.105Z,29.72
2022-08-08T09:28:46.539Z,29.94
2022-08-08T09:29:52.574Z,30.85
2022-08-08T09:30:46.925Z,30.99
2022-08-08T09:31:56.371Z,31.30
2022-08-08T09:33:11.903Z,32.11
2022-08-08T09:34:14.936Z,32.68
2022-08-08T09:34:50.529Z,32.86
2022-08-08T09:35:50.173Z,32.37
2022-08-08T09:36:51.765Z,32.08
2022-08-08T09:38:00.716Z,31.49
2022-08-08T09:38:53.281Z,30.96
2022-08-08T09:39:46.520Z,31.48
2022-08-08T09:40:55.639Z,32.00
2022-08-08T09:42:14.536Z,32.45
2022-08-08T09:42:51.005Z,32.53
2022-08-08T09:44:05.167Z,32.61
2022-08-08T09:44:46.430Z,32.20
2022-08-08T09:45:55.035Z,32.56
2022-08-08T09:46:57.467Z,33.62
2022-08-08T09:48:10.269Z,33.93
2022-08-08T09:48:46.594Z,33.63
2022-08-08T09:49:51.446Z,32.79
2022-08-08T09:50:50.229Z,32.83
2022-08-08T09:52:06.261Z,33.31
2022-08-08T09:52:59.350Z,33.73
2022-08-08T09:53:59.030Z,34.18
2022-08-08T09:54:46.382Z,34.63
2022-08-08T09:56:03.460Z,35.02
2022-08-08T09:56:46.404Z,33.49
2022-08-08T09:57:46.212Z,31.63
2022-08-08T09:58:45.391Z,31.90
2022-08-08T10:00:02.318Z,32.19
2022-08-08T10:00:50.091Z,32.42
2022-08-08T10:01:58.514Z,32.80
2022-08-08T10:02:46.321Z,33.78
2022-08-08T10:03:45.318Z,33.04
2022-08-08T10:04:47.970Z,33.01
2022-08-08T10:05:46.838Z,33.29
2022-08-08T10:06:45.376Z,33.12
2022-08-08T10:07:46.732Z,33.65
2022-08-08T10:08:45.602Z,34.36
2022-08-08T10:10:00.148Z,33.90
2022-08-08T10:10:50.094Z,32.33
2022-08-08T10:12:25.857Z,31.53
2022-08-08T10:12:53.382Z,31.58
2022-08-08T10:13:46.241Z,32.19
2022-08-08T10:14:47.241Z,32.69
2022-08-08T10:16:00.895Z,32.71
2022-08-08T10:16:46.820Z,32.23
2022-08-08T10:18:06.303Z,31.30
2022-08-08T10:18:46.576Z,30.77
2022-08-08T10:19:46.072Z,30.27
2022-08-08T10:20:57.856Z,31.26
2022-08-08T10:21:51.092Z,31.55
2022-08-08T10:22:54.877Z,31.81
2022-08-08T10:23:50.978Z,31.66
2022-08-08T10:24:47.171Z,31.48
2022-08-08T10:25:57.341Z,31.34
2022-08-08T10:26:58.563Z,31.98
2022-08-08T10:27:46.159Z,32.12
2022-08-08T10:28:45.727Z,32.79
2022-08-08T10:29:58.579Z,33.49
2022-08-08T10:30:57.420Z,34.17
2022-08-08T10:31:47.847Z,34.10
2022-08-08T10:32:48.671Z,33.81
2022-08-08T10:34:21.018Z,33.16
2022-08-08T10:34:46.395Z,32.01
2022-08-08T10:36:07.314Z,32.75
2022-08-08T10:36:46.461Z,32.74
2022-08-08T10:37:45.227Z,32.55
2022-08-08T10:38:46.420Z,32.52
2022-08-08T10:39:53.685Z,32.69
2022-08-08T10:40:46.082Z,32.83
2022-08-08T10:41:59.130Z,32.11
2022-08-08T10:42:46.088Z,31.77
2022-08-08T10:43:45.050Z,31.82
2022-08-08T10:44:45.697Z,32.46
2022-08-08T10:45:56.644Z,32.03
2022-08-08T10:46:46.211Z,32.61
2022-08-08T10:47:48.514Z,32.96
2022-08-08T10:48:56.746Z,33.68
2022-08-08T10:50:02.044Z,34.55
2022-08-08T10:50:46.005Z,34.42
2022-08-08T10:51:51.015Z,34.30
2022-08-08T10:52:46.019Z,34.82
2022-08-08T10:53:58.300Z,34.37
2022-08-08T10:54:46.614Z,34.05
2022-08-08T10:55:46.462Z,33.29
2022-08-08T10:56:44.964Z,31.97
2022-08-08T10:57:50.800Z,32.37
2022-08-08T10:58:47.525Z,32.65
2022-08-08T10:59:45.949Z,32.27
2022-08-08T11:00:52.606Z,32.28
2022-08-08T11:01:46.022Z,33.43
2022-08-08T11:02:44.960Z,34.33
2022-08-08T11:04:00.301Z,35.05
2022-08-08T11:04:53.678Z,35.16
2022-08-08T11:05:45.920Z,35.45
2022-08-08T11:06:47.350Z,35.99
2022-08-08T11:08:39.085Z,35.96
2022-08-08T11:08:53.220Z,35.52
2022-08-08T11:09:46.886Z,35.11
2022-08-08T11:10:44.881Z,35.06
2022-08-08T11:12:04.771Z,34.66
2022-08-08T11:12:46.883Z,34.61
2022-08-08T11:13:52.101Z,33.46
2022-08-08T11:14:45.971Z,31.22
2022-08-08T11:15:52.332Z,31.40
2022-08-08T11:16:46.350Z,31.89
2022-08-08T11:17:59.490Z,32.24
2022-08-08T11:18:45.839Z,33.06
2022-08-08T11:19:46.444Z,33.63
2022-08-08T11:20:52.342Z,34.30
2022-08-08T11:21:55.337Z,34.72
2022-08-08T11:22:45.824Z,34.93
2022-08-08T11:23:44.796Z,34.99
2022-08-08T11:24:46.012Z,34.55
2022-08-08T11:25:56.941Z,34.20
2022-08-08T11:26:53.967Z,34.55
2022-08-08T11:27:46.717Z,34.84
2022-08-08T11:28:45.056Z,35.38
2022-08-08T11:29:58.197Z,35.98
2022-08-08T11:30:51.913Z,35.89
2022-08-08T11:31:48.144Z,35.69
2022-08-08T11:32:47.525Z,36.28
2022-08-08T11:33:52.329Z,36.43
2022-08-08T11:35:07.394Z,36.70
2022-08-08T11:35:46.713Z,36.59
2022-08-08T11:36:44.712Z,36.55
2022-08-08T11:38:36.976Z,36.85
2022-08-08T11:38:54.878Z,36.25
2022-08-08T11:39:57.291Z,34.05
2022-08-08T11:40:51.128Z,32.60
2022-08-08T11:41:46.693Z,33.41
2022-08-08T11:42:44.666Z,33.83
2022-08-08T11:43:44.686Z,32.83
2022-08-08T11:44:44.659Z,33.20
2022-08-08T11:46:09.015Z,33.52
2022-08-08T11:46:48.375Z,34.18
2022-08-08T11:48:02.645Z,34.61
2022-08-08T11:48:47.726Z,35.04
2022-08-08T11:49:44.620Z,33.43
2022-08-08T11:50:44.915Z,32.52
2022-08-08T11:51:50.619Z,32.34
2022-08-08T11:52:47.337Z,31.94
2022-08-08T11:53:58.935Z,32.01
2022-08-08T11:54:46.429Z,32.18
2022-08-08T11:55:44.589Z,32.20
2022-08-08T11:56:44.571Z,32.33
2022-08-08T11:57:45.599Z,32.43
2022-08-08T11:58:45.968Z,32.67
2022-08-08T11:59:58.329Z,32.40
2022-08-08T12:00:45.545Z,31.53
2022-08-08T12:01:44.543Z,31.96
2022-08-08T12:02:45.305Z,32.30
2022-08-08T12:03:44.593Z,32.18
2022-08-08T12:04:44.564Z,31.87
2022-08-08T12:05:44.815Z,32.03
2022-08-08T12:06:44.635Z,32.47
2022-08-08T12:07:44.548Z,32.35
2022-08-08T12:08:45.498Z,32.45
2022-08-08T12:09:59.287Z,32.75
2022-08-08T12:10:47.609Z,33.43
2022-08-08T12:11:45.924Z,32.00
2022-08-08T12:12:46.072Z,31.94
2022-08-08T12:14:03.724Z,32.42
2022-08-08T12:14:45.455Z,33.17
2022-08-08T12:15:47.234Z,33.80
2022-08-08T12:16:47.433Z,33.62
2022-08-08T12:17:50.959Z,32.86
2022-08-08T12:18:45.472Z,33.33
2022-08-08T12:19:51.077Z,33.55
2022-08-08T12:20:45.419Z,33.81
2022-08-08T12:22:44.930Z,33.43
2022-08-08T12:23:58.265Z,32.23
2022-08-08T12:24:51.314Z,32.95
2022-08-08T12:25:52.634Z,32.47
2022-08-08T12:26:45.410Z,32.49
2022-08-08T12:27:45.678Z,32.67
2022-08-08T12:28:45.346Z,32.19
2022-08-08T12:29:45.070Z,32.27
2022-08-08T12:30:48.182Z,32.38
2022-08-08T12:31:53.849Z,32.08
2022-08-08T12:32:44.343Z,31.24
2022-08-08T12:34:01.800Z,31.41
2022-08-08T12:34:45.327Z,32.38
2022-08-08T12:35:52.411Z,32.67
2022-08-08T12:36:46.463Z,32.69
2022-08-08T12:38:01.227Z,32.86
2022-08-08T12:38:45.328Z,32.89
2022-08-08T12:40:00.896Z,32.83
2022-08-08T12:40:56.407Z,33.61
2022-08-08T12:41:57.543Z,34.26
2022-08-08T12:42:47.332Z,34.00
2022-08-08T12:43:59.809Z,33.84
2022-08-08T12:44:48.280Z,33.63
2022-08-08T12:45:57.829Z,34.00
2022-08-08T12:46:45.244Z,33.74
2022-08-08T12:48:05.016Z,33.49
2022-08-08T12:49:05.398Z,33.31
2022-08-08T12:49:46.234Z,33.78
2022-08-08T12:50:46.901Z,33.49
2022-08-08T12:51:49.926Z,33.33
2022-08-08T12:52:45.203Z,33.11